Time;durP1;ratioP1;P1;durP2;ratioP2;P2;SDS_P1;SDS_P2;PMS_P1;PMS_P2;Temp;Humidity;BMP_temperature;BMP_pressure;BME280_temperature;BME280_humidity;BME280_pressure;Samples;Min_cycle;Max_cycle;Signal;HPM_P1;HPM_P2
2022/11/08 00:02:43;;;;;;;1.10;0.80;;;10.60;1.00;;;;;;5115962;28;20407;-72
2022/11/08 00:16:10;;;;;;;2.00;0.80;;;10.60;1.00;;;;;;5116254;28;20889;-73
2022/11/08 00:18:37;;;;;;;1.60;0.80;;;10.60;1.00;;;;;;5116305;28;20749;-73
2022/11/08 00:21:06;;;;;;;1.58;0.80;;;10.50;1.00;;;;;;5115646;28;20778;-74
2022/11/08 00:23:33;;;;;;;0.90;0.70;;;10.50;1.00;;;;;;5116610;28;20462;-74
2022/11/08 00:26:00;;;;;;;1.20;0.80;;;10.50;1.00;;;;;;5115803;28;20424;-73
2022/11/08 00:28:27;;;;;;;1.30;0.80;;;10.60;1.00;;;;;;5116392;28;20420;-73
2022/11/08 00:30:57;;;;;;;1.20;0.90;;;10.60;1.00;;;;;;5116359;28;20428;-74
2022/11/08 00:33:24;;;;;;;0.95;0.70;;;10.60;1.00;;;;;;5115774;28;20846;-74
2022/11/08 00:35:51;;;;;;;2.13;0.77;;;10.50;1.00;;;;;;5116144;28;20452;-73
2022/11/08 00:38:19;;;;;;;2.10;0.80;;;10.50;1.00;;;;;;5115729;28;20729;-73
2022/11/08 00:40:46;;;;;;;0.93;0.68;;;10.50;1.00;;;;;;5115760;28;20499;-73
2022/11/08 00:43:13;;;;;;;1.20;0.80;;;10.50;1.00;;;;;;5116043;28;20477;-73
2022/11/08 00:45:39;;;;;;;1.65;0.80;;;10.50;1.00;;;;;;5116351;28;20467;-73
2022/11/08 00:48:07;;;;;;;1.20;0.75;;;10.40;1.00;;;;;;5116487;28;20850;-74
2022/11/08 00:50:37;;;;;;;1.38;0.70;;;10.40;1.00;;;;;;5116443;28;20481;-73
2022/11/08 00:53:04;;;;;;;1.60;0.70;;;10.40;1.00;;;;;;5116032;28;20489;-73
2022/11/08 00:55:33;;;;;;;1.10;0.70;;;10.30;1.00;;;;;;5116042;28;20420;-73
2022/11/08 00:58:00;;;;;;;1.50;0.80;;;10.30;1.00;;;;;;5116240;28;20761;-73
2022/11/08 01:00:26;;;;;;;1.80;0.80;;;10.30;1.00;;;;;;5116168;28;20420;-72
2022/11/08 01:03:17;;;;;;;1.00;0.80;;;10.20;1.00;;;;;;5116227;28;20477;-73
2022/11/08 01:05:41;;;;;;;1.55;1.00;;;10.20;1.00;;;;;;5115404;28;20423;-72
2022/11/08 01:08:11;;;;;;;1.50;1.00;;;10.20;6.10;;;;;;5115783;28;20420;-73
2022/11/08 01:10:41;;;;;;;1.20;0.80;;;10.10;11.00;;;;;;5115727;28;20432;-73
2022/11/08 01:13:08;;;;;;;1.50;0.82;;;10.20;14.20;;;;;;5115917;28;20452;-72
2022/11/08 01:15:35;;;;;;;1.80;0.90;;;10.10;8.30;;;;;;5116196;28;20758;-72
2022/11/08 01:18:02;;;;;;;1.10;0.70;;;10.10;11.20;;;;;;5115642;28;20513;-72
2022/11/08 01:20:29;;;;;;;1.02;0.77;;;10.20;23.10;;;;;;5115969;28;20420;-73
2022/11/08 01:22:57;;;;;;;1.40;0.70;;;10.20;5.80;;;;;;5116617;28;20460;-73
2022/11/08 01:25:24;;;;;;;1.80;0.77;;;10.40;2.90;;;;;;5118493;28;20476;-73
2022/11/08 01:27:52;;;;;;;1.10;0.70;;;10.30;1.00;;;;;;5119445;28;20463;-74
2022/11/08 01:30:19;;;;;;;0.88;0.60;;;10.30;1.00;;;;;;5119426;28;20471;-73
2022/11/08 01:32:46;;;;;;;2.10;0.70;;;10.20;1.00;;;;;;5119330;28;20466;-73
2022/11/08 01:35:13;;;;;;;1.10;0.70;;;10.20;1.00;;;;;;5118969;28;20420;-73
2022/11/08 01:37:40;;;;;;;1.10;0.60;;;10.30;1.00;;;;;;5119623;28;20477;-73
2022/11/08 01:40:08;;;;;;;1.02;0.60;;;10.40;1.00;;;;;;5119431;28;20485;-73
2022/11/08 01:42:35;;;;;;;1.33;0.60;;;10.50;1.00;;;;;;5119379;28;20475;-73
2022/11/08 01:45:06;;;;;;;0.85;0.60;;;10.50;1.00;;;;;;5119535;28;20889;-73
2022/11/08 01:47:33;;;;;;;1.67;0.60;;;10.60;1.00;;;;;;5119199;28;20859;-74
2022/11/08 01:50:03;;;;;;;1.17;0.60;;;10.60;1.00;;;;;;5118807;28;20726;-73
2022/11/08 01:52:33;;;;;;;1.10;0.60;;;10.70;1.00;;;;;;5119220;28;20497;-73
2022/11/08 01:55:07;;;;;;;1.17;0.70;;;10.70;1.00;;;;;;5118484;28;20419;-73
2022/11/08 01:57:42;;;;;;;1.10;0.70;;;10.60;1.00;;;;;;5100844;28;20432;-72
2022/11/08 02:00:12;;;;;;;1.10;0.70;;;10.40;1.00;;;;;;5119094;28;20420;-72
2022/11/08 02:02:41;;;;;;;1.90;0.70;;;10.50;1.00;;;;;;5119145;28;20681;-73
2022/11/08 02:05:23;;;;;;;1.02;0.60;;;10.50;1.00;;;;;;5118665;28;20482;-73
2022/11/08 02:07:57;;;;;;;0.95;0.60;;;10.40;1.00;;;;;;5118858;28;20562;-73
2022/11/08 02:10:29;;;;;;;1.80;0.60;;;10.40;1.00;;;;;;5118279;28;20428;-73
2022/11/08 02:12:58;;;;;;;0.90;0.60;;;10.30;1.00;;;;;;5117688;28;20493;-73
2022/11/08 02:15:26;;;;;;;0.90;0.60;;;10.30;1.00;;;;;;5116307;28;20463;-73
2022/11/08 02:17:54;;;;;;;1.30;0.60;;;10.30;1.00;;;;;;5118021;28;20805;-72
2022/11/08 02:20:21;;;;;;;1.00;0.63;;;10.40;1.00;;;;;;5118314;28;20506;-73
2022/11/08 02:22:58;;;;;;;1.38;0.60;;;10.40;1.00;;;;;;5118356;28;20448;-72
2022/11/08 02:25:27;;;;;;;1.00;0.60;;;10.40;1.00;;;;;;5118309;28;20496;-73
2022/11/08 02:27:54;;;;;;;1.10;0.60;;;10.50;1.00;;;;;;5117544;28;20427;-72
2022/11/08 02:30:21;;;;;;;1.60;0.70;;;10.40;1.00;;;;;;5116800;28;20869;-72
2022/11/08 02:32:48;;;;;;;1.20;0.60;;;10.40;1.00;;;;;;5116451;28;20423;-73
2022/11/08 02:35:18;;;;;;;2.13;0.70;;;10.40;1.00;;;;;;5116381;28;20844;-72
2022/11/08 02:37:46;;;;;;;0.90;0.60;;;10.30;1.00;;;;;;5116593;28;20463;-72
2022/11/08 02:40:13;;;;;;;1.13;0.60;;;10.30;1.00;;;;;;5116795;28;20424;-74
2022/11/08 02:42:41;;;;;;;2.50;0.65;;;10.30;1.00;;;;;;5117023;28;20471;-73
2022/11/08 02:45:11;;;;;;;1.20;0.60;;;10.30;1.00;;;;;;5117689;28;20429;-73
2022/11/08 02:47:38;;;;;;;1.00;0.60;;;10.30;1.00;;;;;;5118169;28;20467;-73
2022/11/08 02:50:06;;;;;;;0.90;0.65;;;10.30;1.00;;;;;;5117525;28;20450;-72
2022/11/08 02:52:40;;;;;;;1.10;0.50;;;10.20;1.00;;;;;;5118137;28;20431;-74
2022/11/08 02:55:08;;;;;;;1.15;0.60;;;10.10;1.00;;;;;;5117874;28;20777;-74
2022/11/08 02:57:34;;;;;;;0.90;0.60;;;10.10;1.00;;;;;;5099827;28;20420;-74
2022/11/08 03:00:03;;;;;;;1.10;0.60;;;10.20;1.00;;;;;;5117617;28;20412;-73
2022/11/08 03:02:30;;;;;;;0.90;0.70;;;10.20;1.00;;;;;;5116853;28;20901;-75
2022/11/08 03:04:57;;;;;;;1.20;0.60;;;10.20;1.00;;;;;;5117228;28;20424;-74
2022/11/08 03:07:24;;;;;;;1.00;0.70;;;10.20;1.00;;;;;;5117690;28;20496;-73
2022/11/08 03:09:51;;;;;;;1.20;0.70;;;10.20;1.00;;;;;;5117268;28;20464;-73
2022/11/08 03:12:20;;;;;;;0.90;0.60;;;10.10;1.00;;;;;;5117045;28;20428;-74
2022/11/08 03:14:47;;;;;;;1.30;0.60;;;10.10;1.00;;;;;;5118016;28;20451;-74
2022/11/08 03:17:16;;;;;;;1.00;0.60;;;10.10;1.00;;;;;;5116071;28;20882;-73
2022/11/08 03:19:43;;;;;;;0.80;0.60;;;10.20;1.00;;;;;;5115606;28;20777;-74
2022/11/08 03:22:10;;;;;;;1.00;0.60;;;10.10;1.00;;;;;;5115120;28;20435;-73
2022/11/08 03:24:37;;;;;;;1.40;0.80;;;10.10;1.00;;;;;;5115001;28;20515;-73
2022/11/08 03:27:04;;;;;;;3.00;0.70;;;10.00;1.00;;;;;;5114511;28;20534;-74
2022/11/08 03:29:31;;;;;;;1.50;0.70;;;9.90;1.00;;;;;;5115473;28;20416;-73
2022/11/08 03:31:58;;;;;;;0.90;0.60;;;9.90;1.00;;;;;;5115147;28;20782;-72
2022/11/08 03:34:26;;;;;;;2.65;0.60;;;9.90;1.00;;;;;;5116559;28;20419;-73
2022/11/08 03:36:58;;;;;;;1.30;0.80;;;9.90;1.00;;;;;;5116891;28;20424;-72
2022/11/08 03:39:25;;;;;;;1.30;0.70;;;9.90;1.00;;;;;;5117613;28;20850;-72
2022/11/08 03:41:52;;;;;;;1.95;0.73;;;9.80;1.00;;;;;;5116905;28;20455;-72
2022/11/08 03:44:18;;;;;;;1.20;0.70;;;9.70;1.00;;;;;;5116743;28;20511;-73
2022/11/08 03:46:45;;;;;;;1.00;0.70;;;9.60;1.00;;;;;;5115513;28;20416;-73
2022/11/08 03:49:12;;;;;;;1.70;0.80;;;9.60;4.60;;;;;;5115758;28;20424;-72
2022/11/08 03:51:41;;;;;;;1.23;0.70;;;9.60;9.00;;;;;;5117223;28;20428;-72
2022/11/08 03:54:08;;;;;;;1.17;0.70;;;9.50;13.90;;;;;;5116765;28;20462;-72
2022/11/08 03:56:35;;;;;;;2.35;0.73;;;9.50;17.00;;;;;;5116740;28;20412;-72
2022/11/08 03:59:02;;;;;;;1.60;0.80;;;9.50;10.40;;;;;;5115912;28;20471;-72
2022/11/08 04:01:30;;;;;;;1.50;0.70;;;9.40;14.10;;;;;;5115955;28;20455;-74
2022/11/08 04:03:58;;;;;;;1.10;0.70;;;9.30;19.90;;;;;;5116402;28;20447;-72
2022/11/08 04:06:25;;;;;;;1.20;0.70;;;9.20;28.80;;;;;;5116381;28;20776;-73
2022/11/08 04:08:53;;;;;;;1.03;0.70;;;9.10;38.60;;;;;;5116625;28;20432;-73
2022/11/08 04:16:49;;;;;;;1.08;0.63;;;8.90;74.30;;;;;;5116111;28;20438;-73
2022/11/08 04:22:02;;;;;;;1.30;0.60;;;9.20;65.10;;;;;;5116037;28;20695;-73
2022/11/08 04:24:31;;;;;;;1.00;0.60;;;9.30;46.20;;;;;;5116535;28;20872;-73
2022/11/08 04:27:01;;;;;;;0.90;0.60;;;9.40;31.90;;;;;;5116342;28;20483;-73
2022/11/08 04:29:28;;;;;;;1.30;0.70;;;9.40;16.40;;;;;;5116323;28;20515;-73
2022/11/08 04:31:55;;;;;;;2.30;0.60;;;9.50;17.20;;;;;;5115836;28;20432;-73
2022/11/08 04:34:22;;;;;;;1.70;0.60;;;9.50;5.90;;;;;;5116133;28;20412;-73
2022/11/08 04:36:49;;;;;;;1.50;0.60;;;9.50;10.10;;;;;;5115298;28;20482;-72
2022/11/08 04:39:16;;;;;;;1.13;0.60;;;9.60;4.40;;;;;;5115675;28;20457;-74
2022/11/08 04:41:44;;;;;;;1.10;0.60;;;9.50;1.00;;;;;;5115603;28;20451;-72
2022/11/08 04:44:14;;;;;;;1.00;0.70;;;9.40;13.20;;;;;;5115658;28;20507;-73
2022/11/08 04:46:41;;;;;;;1.13;0.60;;;9.30;15.40;;;;;;5115633;28;20929;-73
2022/11/08 04:49:10;;;;;;;2.00;0.60;;;9.40;19.10;;;;;;5116419;28;20460;-74
2022/11/08 04:51:37;;;;;;;0.90;0.60;;;9.30;18.80;;;;;;5115526;28;20890;-73
2022/11/08 04:54:06;;;;;;;1.42;0.60;;;9.40;23.90;;;;;;5115778;28;20448;-74
2022/11/08 04:56:33;;;;;;;1.70;0.60;;;9.30;9.90;;;;;;5116070;28;20420;-74
2022/11/08 04:59:01;;;;;;;1.30;0.70;;;9.20;13.10;;;;;;5118690;28;20796;-73
2022/11/08 05:01:30;;;;;;;1.25;0.60;;;9.20;14.80;;;;;;5120635;28;20636;-73
2022/11/08 05:03:57;;;;;;;1.00;0.70;;;9.00;23.50;;;;;;5119893;28;20452;-73
2022/11/08 05:06:26;;;;;;;1.35;0.70;;;8.90;32.00;;;;;;5119373;28;20449;-74
2022/11/08 05:08:57;;;;;;;1.20;0.70;;;8.90;40.80;;;;;;5120422;28;20452;-73
2022/11/08 05:11:27;;;;;;;1.30;0.70;;;8.80;42.10;;;;;;5120122;28;20433;-74
2022/11/08 05:13:55;;;;;;;1.30;0.80;;;8.80;53.20;;;;;;5119144;28;20434;-73
2022/11/08 05:16:25;;;;;;;1.60;0.80;;;8.80;54.30;;;;;;5120168;28;20475;-73
2022/11/08 05:18:52;;;;;;;1.30;0.77;;;8.90;49.10;;;;;;5119974;28;20431;-73
2022/11/08 05:24:11;;;;;;;1.00;0.70;;;8.90;40.50;;;;;;5118167;28;20414;-74
2022/11/08 05:26:42;;;;;;;0.80;0.60;;;9.00;35.10;;;;;;5116728;28;20460;-73
2022/11/08 05:29:09;;;;;;;1.20;0.70;;;9.20;41.40;;;;;;5118235;28;20503;-73
2022/11/08 05:31:38;;;;;;;1.00;0.60;;;9.10;16.60;;;;;;5118552;28;20428;-73
2022/11/08 05:34:06;;;;;;;1.47;0.70;;;9.10;24.40;;;;;;5119177;28;20770;-72
2022/11/08 05:36:34;;;;;;;1.42;0.60;;;9.00;28.00;;;;;;5119121;28;20460;-74
2022/11/08 05:39:01;;;;;;;1.05;0.60;;;9.10;34.80;;;;;;5118957;28;20440;-74
2022/11/08 05:41:28;;;;;;;1.42;0.90;;;9.20;18.50;;;;;;5117893;28;20780;-73
2022/11/08 05:43:58;;;;;;;1.38;0.70;;;9.10;16.00;;;;;;5118282;28;20416;-73
2022/11/08 05:46:27;;;;;;;1.00;0.60;;;9.30;30.70;;;;;;5119012;28;20524;-73
2022/11/08 05:48:56;;;;;;;1.30;0.70;;;9.20;9.30;;;;;;5118904;28;20928;-74
2022/11/08 05:51:23;;;;;;;1.20;0.60;;;9.40;16.00;;;;;;5118253;28;20513;-73
2022/11/08 05:53:50;;;;;;;0.90;0.60;;;9.30;1.00;;;;;;5119049;28;20428;-73
2022/11/08 05:56:17;;;;;;;1.40;0.70;;;9.20;1.00;;;;;;5118201;28;20455;-73
2022/11/08 05:58:45;;;;;;;1.13;0.60;;;9.10;1.00;;;;;;5119577;28;20463;-74
2022/11/08 06:01:13;;;;;;;1.00;0.60;;;9.00;11.50;;;;;;5118230;28;20444;-74
2022/11/08 06:03:40;;;;;;;1.70;0.63;;;8.90;18.30;;;;;;5118186;28;20988;-74
2022/11/08 06:06:14;;;;;;;2.10;0.70;;;8.90;19.50;;;;;;5116855;28;20415;-73
2022/11/08 06:08:41;;;;;;;1.00;0.60;;;8.80;30.30;;;;;;5116828;28;20980;-73
2022/11/08 06:11:09;;;;;;;1.30;0.60;;;8.80;31.50;;;;;;5116859;28;20486;-72
2022/11/08 06:13:38;;;;;;;0.95;0.60;;;8.80;33.60;;;;;;5117728;28;20464;-73
2022/11/08 06:16:06;;;;;;;0.90;0.60;;;8.80;28.40;;;;;;5116868;28;20483;-73
2022/11/08 06:18:35;;;;;;;1.60;0.65;;;9.10;37.20;;;;;;5117937;28;20516;-73
2022/11/08 06:21:03;;;;;;;1.70;0.52;;;9.20;29.20;;;;;;5119270;28;20507;-73
2022/11/08 06:23:32;;;;;;;1.00;0.60;;;9.30;5.90;;;;;;5117085;28;20479;-73
2022/11/08 06:25:59;;;;;;;0.90;0.50;;;9.40;1.00;;;;;;5115786;28;20416;-73
2022/11/08 06:28:27;;;;;;;0.93;0.60;;;9.30;1.00;;;;;;5117322;28;20451;-73
2022/11/08 06:30:54;;;;;;;1.05;0.60;;;9.20;1.00;;;;;;5116084;28;20843;-73
2022/11/08 06:33:21;;;;;;;1.20;0.70;;;9.10;6.40;;;;;;5117816;28;20424;-73
2022/11/08 06:35:48;;;;;;;1.17;0.60;;;9.20;1.00;;;;;;5116806;28;20416;-73
2022/11/08 06:38:15;;;;;;;1.08;0.60;;;9.10;4.80;;;;;;5116773;28;20451;-74
2022/11/08 06:40:44;;;;;;;1.80;0.68;;;9.20;7.90;;;;;;5116110;28;20458;-73
2022/11/08 06:43:12;;;;;;;0.90;0.60;;;9.50;1.00;;;;;;5115561;28;20724;-73
2022/11/08 06:45:39;;;;;;;1.00;0.70;;;9.40;1.00;;;;;;5117522;28;20456;-73
2022/11/08 06:48:07;;;;;;;1.80;0.80;;;9.20;1.00;;;;;;5116096;28;20522;-73
2022/11/08 06:50:36;;;;;;;2.03;0.70;;;9.10;1.00;;;;;;5114069;28;20773;-73
2022/11/08 06:53:07;;;;;;;1.92;0.70;;;9.00;5.40;;;;;;5115265;28;20802;-72
2022/11/08 06:55:35;;;;;;;1.00;0.70;;;8.90;18.80;;;;;;5115672;28;20416;-73
2022/11/08 06:58:04;;;;;;;1.30;0.70;;;8.80;19.00;;;;;;5115296;28;20455;-73
2022/11/08 07:00:31;;;;;;;1.10;0.77;;;8.90;23.80;;;;;;5113733;28;20468;-73
2022/11/08 07:03:00;;;;;;;1.20;0.70;;;8.90;24.50;;;;;;5115929;28;20420;-73
2022/11/08 07:05:28;;;;;;;1.15;0.70;;;8.80;24.70;;;;;;5116597;28;20884;-73
2022/11/08 07:07:57;;;;;;;1.02;0.70;;;8.90;30.30;;;;;;5114407;28;20549;-73
2022/11/08 07:10:26;;;;;;;1.40;0.70;;;9.00;27.50;;;;;;5114194;28;20588;-74
2022/11/08 07:12:59;;;;;;;1.70;0.70;;;9.00;19.70;;;;;;5117273;28;20467;-74
2022/11/08 07:15:28;;;;;;;1.58;0.70;;;9.10;21.90;;;;;;5116707;28;20548;-73
2022/11/08 07:17:58;;;;;;;1.50;0.70;;;9.10;5.40;;;;;;5106357;28;20428;-73
2022/11/08 07:20:25;;;;;;;1.10;0.70;;;9.20;3.90;;;;;;5115307;28;20459;-73
2022/11/08 07:22:54;;;;;;;1.60;0.80;;;9.20;4.10;;;;;;5113888;28;20801;-72
2022/11/08 07:25:21;;;;;;;1.20;0.80;;;9.40;5.90;;;;;;5114717;28;20833;-73
2022/11/08 07:27:48;;;;;;;1.87;0.90;;;9.40;1.00;;;;;;5114427;27;20803;-73
2022/11/08 07:30:16;;;;;;;1.40;0.80;;;9.40;1.00;;;;;;5115479;28;20493;-73
2022/11/08 07:32:44;;;;;;;1.88;0.70;;;9.40;1.00;;;;;;5115786;28;20428;-73
2022/11/08 07:35:11;;;;;;;2.60;0.70;;;9.40;1.00;;;;;;5114496;28;20443;-73
2022/11/08 07:37:38;;;;;;;1.10;0.70;;;9.50;1.00;;;;;;5114197;28;20492;-73
2022/11/08 07:40:06;;;;;;;1.20;0.70;;;9.50;1.00;;;;;;5114046;28;20768;-72
2022/11/08 07:42:36;;;;;;;1.20;0.70;;;9.60;1.00;;;;;;5114471;28;20879;-72
2022/11/08 07:45:03;;;;;;;1.10;0.70;;;9.60;1.00;;;;;;5112633;28;20454;-74
2022/11/08 07:47:30;;;;;;;1.60;0.60;;;9.60;1.00;;;;;;5113215;28;20424;-73
2022/11/08 07:49:58;;;;;;;1.10;0.70;;;9.60;1.00;;;;;;5113497;28;20506;-72
2022/11/08 07:52:26;;;;;;;1.50;0.60;;;9.60;1.00;;;;;;5113367;28;20523;-73
2022/11/08 07:54:53;;;;;;;1.00;0.60;;;9.50;1.00;;;;;;5112683;28;20552;-73
2022/11/08 07:57:20;;;;;;;1.40;0.60;;;9.60;1.00;;;;;;5111812;28;21012;-73
2022/11/08 07:59:48;;;;;;;1.50;0.70;;;9.70;1.00;;;;;;5111911;28;20443;-72
2022/11/08 08:02:17;;;;;;;2.20;0.70;;;9.80;1.00;;;;;;5110438;28;20863;-73
2022/11/08 08:04:44;;;;;;;1.80;0.60;;;9.80;1.00;;;;;;5113567;28;20504;-72
2022/11/08 08:07:12;;;;;;;1.20;0.60;;;9.90;1.00;;;;;;5112819;28;20487;-72
2022/11/08 08:09:39;;;;;;;1.35;0.57;;;10.00;1.00;;;;;;5111902;28;20841;-73
2022/11/08 08:12:07;;;;;;;0.80;0.50;;;10.10;1.00;;;;;;5113618;28;20428;-72
2022/11/08 08:14:34;;;;;;;1.30;0.50;;;10.30;1.00;;;;;;5112841;28;20507;-73
2022/11/08 08:17:01;;;;;;;0.60;0.40;;;10.50;1.00;;;;;;5113205;28;20907;-74
2022/11/08 08:19:27;;;;;;;1.00;0.50;;;10.70;1.00;;;;;;5115742;28;20536;-72
2022/11/08 08:21:54;;;;;;;1.00;0.40;;;11.00;1.00;;;;;;5113102;28;20460;-72
2022/11/08 08:24:23;;;;;;;1.67;0.52;;;11.30;1.00;;;;;;5113773;28;20451;-72
2022/11/08 08:26:50;;;;;;;1.73;0.43;;;11.40;99.90;;;;;;5112469;28;20502;-72
2022/11/08 08:29:17;;;;;;;1.38;0.60;;;11.40;1.00;;;;;;5112546;28;20477;-72
2022/11/08 08:31:44;;;;;;;0.80;0.50;;;11.50;99.90;;;;;;5112758;28;20515;-73
2022/11/08 08:34:10;;;;;;;1.00;0.40;;;11.50;99.90;;;;;;5117093;28;20481;-73
2022/11/08 08:36:41;;;;;;;0.80;0.50;;;11.50;99.90;;;;;;5118473;28;20431;-72
2022/11/08 08:39:08;;;;;;;0.80;0.70;;;11.50;99.90;;;;;;5118478;28;20432;-71
2022/11/08 08:41:37;;;;;;;1.80;0.50;;;11.60;99.90;;;;;;5116172;28;20507;-72
2022/11/08 08:44:04;;;;;;;2.50;0.60;;;11.60;99.90;;;;;;5116169;28;20477;-71
2022/11/08 08:46:31;;;;;;;0.80;0.50;;;11.70;99.90;;;;;;5115884;28;20439;-73
2022/11/08 08:48:58;;;;;;;1.33;0.60;;;11.80;99.90;;;;;;5115516;28;20813;-72
2022/11/08 08:51:25;;;;;;;1.90;0.50;;;11.80;99.90;;;;;;5116690;28;20427;-72
2022/11/08 08:53:53;;;;;;;0.75;0.50;;;11.80;99.90;;;;;;5116769;28;20861;-72
2022/11/08 08:56:20;;;;;;;0.83;0.40;;;11.90;99.90;;;;;;5116086;28;20546;-73
2022/11/08 08:58:49;;;;;;;0.57;0.37;;;11.90;99.90;;;;;;5119914;28;20479;-74
2022/11/08 09:01:16;;;;;;;1.57;0.50;;;12.00;99.90;;;;;;5119532;28;20444;-71
2022/11/08 09:03:43;;;;;;;1.07;0.40;;;12.10;99.90;;;;;;5119522;28;20522;-72
2022/11/08 09:06:10;;;;;;;0.77;0.30;;;12.10;99.90;;;;;;5121007;28;20847;-72
2022/11/08 09:08:37;;;;;;;0.60;0.40;;;12.10;99.90;;;;;;5119151;28;20495;-72
2022/11/08 09:11:04;;;;;;;0.80;0.40;;;12.20;99.90;;;;;;5119409;28;20476;-70
2022/11/08 09:13:31;;;;;;;0.73;0.40;;;12.10;99.90;;;;;;5122580;28;20495;-72
2022/11/08 09:16:02;;;;;;;1.23;0.40;;;12.00;99.90;;;;;;5120553;28;20474;-72
2022/11/08 09:18:29;;;;;;;0.60;0.40;;;12.00;99.90;;;;;;5119630;28;20475;-71
2022/11/08 09:20:57;;;;;;;0.70;0.40;;;12.30;99.90;;;;;;5110799;28;20531;-72
2022/11/08 09:23:24;;;;;;;0.80;0.40;;;12.40;99.90;;;;;;5119171;28;20448;-70
2022/11/08 09:25:57;;;;;;;0.60;0.40;;;12.50;99.90;;;;;;5112325;28;20444;-71
2022/11/08 09:28:26;;;;;;;0.80;0.40;;;12.50;99.90;;;;;;5117682;28;20893;-71
2022/11/08 09:30:52;;;;;;;0.80;0.40;;;12.50;99.90;;;;;;5117750;28;20967;-72
2022/11/08 09:33:21;;;;;;;1.30;0.60;;;12.50;99.90;;;;;;5118158;28;20476;-72
2022/11/08 09:35:48;;;;;;;1.27;0.40;;;12.50;99.90;;;;;;5117956;28;20448;-72
2022/11/08 09:38:16;;;;;;;1.10;0.30;;;12.60;99.90;;;;;;5119270;28;20509;-71
2022/11/08 09:40:53;;;;;;;0.80;0.40;;;12.60;99.90;;;;;;5119305;28;20445;-73
2022/11/08 09:43:45;;;;;;;1.10;0.30;;;12.70;99.90;;;;;;5118495;28;20508;-72
2022/11/08 09:46:24;;;;;;;0.60;0.40;;;12.90;99.90;;;;;;5119544;28;20456;-73
2022/11/08 09:48:55;;;;;;;0.50;0.20;;;13.00;99.90;;;;;;5118313;28;20517;-73
2022/11/08 09:51:24;;;;;;;0.70;0.50;;;13.20;99.90;;;;;;5118756;28;20617;-72
2022/11/08 09:53:55;;;;;;;1.17;0.40;;;13.30;99.90;;;;;;5118219;28;20520;-72
2022/11/08 09:56:26;;;;;;;1.13;0.40;;;13.50;99.90;;;;;;5117856;28;20444;-74
2022/11/08 09:59:00;;;;;;;1.43;0.30;;;13.60;99.90;;;;;;5118855;28;20456;-71
2022/11/08 10:01:30;;;;;;;0.73;0.40;;;13.80;99.90;;;;;;5117284;28;21043;-72
2022/11/08 10:04:04;;;;;;;0.63;0.40;;;13.90;99.90;;;;;;5115885;28;20484;-70
2022/11/08 10:06:54;;;;;;;1.33;0.40;;;14.00;99.90;;;;;;5117251;28;20444;-73
2022/11/08 10:09:37;;;;;;;1.07;0.30;;;14.10;99.90;;;;;;5116931;28;20460;-71
2022/11/08 10:12:17;;;;;;;0.50;0.30;;;14.20;99.90;;;;;;5112161;28;20480;-73
2022/11/08 10:15:04;;;;;;;1.57;0.40;;;14.30;99.90;;;;;;5116065;28;20449;-72
2022/11/08 10:17:57;;;;;;;0.80;0.50;;;14.40;99.90;;;;;;5117258;28;20759;-71
2022/11/08 10:20:35;;;;;;;0.60;0.33;;;14.50;99.90;;;;;;5114800;28;20717;-73
2022/11/08 10:23:13;;;;;;;1.60;0.30;;;14.50;99.90;;;;;;5116445;28;20451;-73
2022/11/08 10:25:44;;;;;;;0.50;0.30;;;14.50;99.90;;;;;;5107841;28;20436;-71
2022/11/08 10:28:16;;;;;;;0.50;0.23;;;14.60;99.90;;;;;;5100132;28;20939;-71
2022/11/08 10:30:47;;;;;;;0.87;0.40;;;14.60;99.90;;;;;;5114043;28;20444;-74
2022/11/08 10:33:17;;;;;;;2.83;0.40;;;14.60;99.90;;;;;;5117391;27;20476;-73
2022/11/08 10:35:56;;;;;;;1.57;0.30;;;14.60;99.90;;;;;;5116049;28;20480;-73
2022/11/08 10:38:29;;;;;;;0.63;0.30;;;14.50;99.90;;;;;;5115757;28;20876;-72
2022/11/08 10:41:00;;;;;;;0.67;0.37;;;14.50;99.90;;;;;;5115285;28;20452;-74
2022/11/08 10:43:33;;;;;;;0.70;0.30;;;14.40;99.90;;;;;;5115898;28;20507;-74
2022/11/08 10:46:00;;;;;;;0.57;0.30;;;14.40;99.90;;;;;;5116901;28;20899;-74
2022/11/08 10:48:27;;;;;;;0.50;0.30;;;14.50;99.90;;;;;;5116526;28;20548;-73
2022/11/08 10:50:55;;;;;;;0.50;0.30;;;14.50;99.90;;;;;;5116254;27;20937;-73
2022/11/08 10:53:27;;;;;;;0.43;0.30;;;14.50;99.90;;;;;;5112892;28;20538;-73
2022/11/08 10:56:00;;;;;;;0.60;0.30;;;14.60;99.90;;;;;;5114536;28;20452;-73
2022/11/08 10:58:32;;;;;;;0.67;0.40;;;14.70;99.90;;;;;;5110448;28;20938;-70
2022/11/08 11:01:02;;;;;;;0.50;0.30;;;14.90;99.90;;;;;;5114313;28;20441;-73
2022/11/08 11:03:30;;;;;;;1.17;0.40;;;15.10;99.90;;;;;;5115198;28;20769;-72
2022/11/08 11:06:03;;;;;;;0.50;0.30;;;15.10;99.90;;;;;;5115638;28;20448;-72
2022/11/08 11:08:31;;;;;;;0.40;0.30;;;15.20;99.90;;;;;;5114363;28;20448;-72
2022/11/08 11:11:26;;;;;;;0.40;0.30;;;15.20;99.90;;;;;;5097417;28;20560;-72
2022/11/08 11:14:14;;;;;;;0.73;0.30;;;15.30;99.90;;;;;;5097839;28;20524;-70
2022/11/08 11:16:55;;;;;;;1.00;0.40;;;15.30;99.90;;;;;;5096327;28;20852;-71
2022/11/08 11:19:26;;;;;;;0.60;0.40;;;15.40;99.90;;;;;;5094015;28;20537;-73
2022/11/08 11:22:01;;;;;;;0.60;0.40;;;15.50;99.90;;;;;;5095096;28;20780;-70
2022/11/08 11:24:28;;;;;;;0.67;0.40;;;15.50;99.90;;;;;;5094893;28;20502;-73
2022/11/08 11:27:02;;;;;;;1.43;0.40;;;15.60;99.90;;;;;;5095559;28;20889;-72
2022/11/08 11:29:31;;;;;;;1.30;0.47;;;15.60;99.90;;;;;;5093902;28;20507;-73
2022/11/08 11:32:19;;;;;;;1.40;1.20;;;15.50;99.90;;;;;;5093997;28;20441;-72
2022/11/08 11:34:53;;;;;;;0.80;0.50;;;15.50;99.90;;;;;;5096340;28;20449;-72
2022/11/08 11:37:29;;;;;;;1.00;0.40;;;15.60;99.90;;;;;;5098186;28;20446;-71
2022/11/08 11:40:03;;;;;;;1.30;0.83;;;15.70;99.90;;;;;;5097280;28;20465;-72
2022/11/08 11:42:35;;;;;;;1.63;1.33;;;15.80;99.90;;;;;;5094669;28;20625;-72
2022/11/08 11:45:11;;;;;;;1.87;1.20;;;16.10;99.90;;;;;;5096273;28;20841;-71
2022/11/08 11:47:46;;;;;;;1.17;0.40;;;16.40;99.90;;;;;;5094658;28;20453;-71
2022/11/08 11:50:22;;;;;;;1.00;0.30;;;16.60;99.90;;;;;;5094684;28;20456;-72
2022/11/08 11:52:51;;;;;;;0.70;0.40;;;16.50;99.90;;;;;;5095666;28;20878;-71
2022/11/08 11:55:18;;;;;;;0.50;0.30;;;16.50;99.90;;;;;;5093360;28;20450;-71
2022/11/08 11:57:58;;;;;;;0.90;0.30;;;16.40;99.90;;;;;;5097201;28;20489;-71
2022/11/08 12:00:25;;;;;;;3.87;3.10;;;16.40;99.90;;;;;;5096926;28;20827;-72
2022/11/08 12:03:29;;;;;;;0.80;0.40;;;16.30;99.90;;;;;;5097488;28;20576;-72
2022/11/08 12:06:20;;;;;;;0.70;0.37;;;16.40;99.90;;;;;;5083170;28;20445;-72
2022/11/08 12:09:12;;;;;;;0.93;0.30;;;16.70;99.90;;;;;;5092305;28;20537;-73
2022/11/08 12:11:58;;;;;;;1.47;0.40;;;16.90;99.90;;;;;;5095257;28;20442;-73
2022/11/08 12:14:41;;;;;;;0.40;0.27;;;16.90;99.90;;;;;;5096542;28;20511;-73
2022/11/08 12:17:45;;;;;;;0.50;0.30;;;17.10;99.90;;;;;;5096154;28;20495;-72
2022/11/08 12:20:29;;;;;;;1.03;0.40;;;17.20;99.90;;;;;;5093627;28;20518;-73
2022/11/08 12:23:13;;;;;;;0.60;0.40;;;17.40;99.90;;;;;;5091023;28;20509;-73
2022/11/08 12:25:49;;;;;;;0.50;0.30;;;17.50;99.90;;;;;;5095480;28;20453;-71
2022/11/08 12:28:33;;;;;;;0.90;0.30;;;17.60;99.90;;;;;;5092770;28;20462;-73
2022/11/08 12:31:08;;;;;;;0.50;0.30;;;17.70;99.90;;;;;;5093528;28;20223;-73
2022/11/08 12:33:44;;;;;;;0.57;0.30;;;17.80;99.90;;;;;;5095499;28;20484;-72
2022/11/08 12:36:19;;;;;;;1.60;0.30;;;18.00;99.90;;;;;;5095583;28;20446;-73
2022/11/08 12:39:02;;;;;;;0.60;0.20;;;18.00;99.90;;;;;;5095458;28;20513;-72
2022/11/08 12:41:40;;;;;;;0.40;0.20;;;18.10;99.90;;;;;;5095988;28;20501;-74
2022/11/08 12:44:32;;;;;;;2.50;0.40;;;18.20;99.90;;;;;;5095137;28;20938;-73
2022/11/08 12:47:14;;;;;;;0.50;0.30;;;18.30;99.90;;;;;;5093596;28;20503;-74
2022/11/08 12:49:52;;;;;;;0.40;0.30;;;18.30;99.90;;;;;;5093777;28;20479;-71
2022/11/08 12:52:42;;;;;;;0.60;0.30;;;18.30;99.90;;;;;;5075074;28;20454;-74
2022/11/08 12:55:17;;;;;;;0.40;0.20;;;18.30;99.90;;;;;;5091880;28;20751;-75
2022/11/08 12:57:45;;;;;;;0.60;0.30;;;18.40;99.90;;;;;;5094505;28;20430;-75
2022/11/08 13:00:17;;;;;;;1.03;0.30;;;18.50;99.90;;;;;;5095246;28;20245;-75
2022/11/08 13:02:58;;;;;;;0.60;0.37;;;18.50;99.90;;;;;;5095519;28;20453;-74
2022/11/08 13:05:28;;;;;;;0.60;0.20;;;18.40;99.90;;;;;;5095333;28;20888;-74
2022/11/08 13:08:04;;;;;;;0.43;0.20;;;18.30;99.90;;;;;;5096027;28;20526;-75
2022/11/08 13:10:37;;;;;;;0.50;0.30;;;18.20;99.90;;;;;;5095393;28;20449;-73
2022/11/08 13:13:21;;;;;;;0.63;0.30;;;18.20;99.90;;;;;;5095209;28;20549;-71
2022/11/08 13:16:11;;;;;;;0.80;0.30;;;18.10;99.90;;;;;;5095276;28;20453;-73
2022/11/08 13:18:44;;;;;;;1.03;0.30;;;18.10;99.90;;;;;;5094922;28;20477;-72
2022/11/08 13:21:36;;;;;;;0.73;0.40;;;18.20;99.90;;;;;;5097124;28;20481;-72
2022/11/08 13:24:33;;;;;;;1.53;0.70;;;18.30;99.90;;;;;;5097733;28;20824;-72
2022/11/08 13:27:24;;;;;;;1.27;0.40;;;18.30;99.90;;;;;;5097857;28;20442;-74
2022/11/08 13:29:55;;;;;;;0.60;0.30;;;18.30;99.90;;;;;;5097177;28;20540;-72
2022/11/08 13:32:34;;;;;;;0.47;0.30;;;18.20;99.90;;;;;;5096829;28;20451;-72
2022/11/08 13:35:08;;;;;;;0.50;0.40;;;18.00;99.90;;;;;;5097983;28;20438;-71
2022/11/08 13:37:51;;;;;;;0.60;0.40;;;17.90;99.90;;;;;;5097275;28;20881;-73